createdAt,value
2019-01-04T00:02:48.207Z,4.40
2019-01-04T00:07:51.938Z,4.53
2019-01-04T00:12:55.698Z,4.50
2019-01-04T00:17:59.676Z,4.97
2019-01-04T00:23:03.764Z,4.83
2019-01-04T00:28:07.693Z,4.90
2019-01-04T00:33:11.279Z,5.10
2019-01-04T00:38:15.747Z,4.60
2019-01-04T00:43:19.363Z,4.17
2019-01-04T00:48:23.118Z,4.07
2019-01-04T00:53:26.830Z,4.77
2019-01-04T00:58:55.963Z,4.93
2019-01-04T01:04:27.742Z,5.20
2019-01-04T01:09:37.045Z,3.90
2019-01-04T01:14:46.647Z,4.60
2019-01-04T01:20:02.202Z,4.30
2019-01-04T01:25:17.655Z,4.83
2019-01-04T01:30:40.530Z,4.60
2019-01-04T01:35:51.491Z,4.73
2019-01-04T01:41:14.366Z,5.67
2019-01-04T01:46:36.086Z,4.70
2019-01-04T01:51:45.389Z,4.50
2019-01-04T01:56:51.782Z,4.33
2019-01-04T02:01:59.776Z,4.67
2019-01-04T02:07:03.379Z,5.10
2019-01-04T02:12:06.986Z,4.27
2019-01-04T02:17:10.599Z,5.00
2019-01-04T02:22:17.026Z,4.33
2019-01-04T02:27:22.236Z,4.27
2019-01-04T02:32:25.969Z,5.17
2019-01-04T02:37:29.536Z,5.13
2019-01-04T02:42:33.147Z,4.70
2019-01-04T02:47:40.750Z,4.40
2019-01-04T02:52:44.381Z,4.77
2019-01-04T02:57:50.419Z,5.90
2019-01-04T03:02:59.467Z,6.03
2019-01-04T03:08:04.712Z,5.37
2019-01-04T03:13:14.102Z,5.27
2019-01-04T03:18:17.719Z,4.77
2019-01-04T03:23:21.332Z,5.23
2019-01-04T03:28:27.737Z,4.80
2019-01-04T03:33:31.337Z,5.50
2019-01-04T03:38:36.102Z,5.00
2019-01-04T03:43:39.667Z,4.30
2019-01-04T03:48:45.293Z,4.83
2019-01-04T03:53:51.583Z,4.70
2019-01-04T03:58:57.116Z,4.83
2019-01-04T04:04:06.146Z,5.17
2019-01-04T04:09:14.419Z,5.00
2019-01-04T04:14:18.010Z,4.73
2019-01-04T04:19:21.614Z,4.07
2019-01-04T04:24:30.963Z,5.17
2019-01-04T04:29:34.561Z,4.20
2019-01-04T04:34:40.844Z,5.00
2019-01-04T04:39:47.664Z,4.70
2019-01-04T04:44:54.000Z,5.40
2019-01-04T04:50:00.190Z,4.43
2019-01-04T04:55:06.637Z,5.47
2019-01-04T05:00:10.399Z,7.27
2019-01-04T05:05:16.755Z,6.37
2019-01-04T05:10:22.010Z,6.00
2019-01-04T05:15:25.623Z,5.60
2019-01-04T05:20:31.975Z,5.90
2019-01-04T05:25:37.503Z,5.10
2019-01-04T05:30:42.749Z,5.20
2019-01-04T05:35:52.175Z,5.50
2019-01-04T05:41:02.047Z,5.80
2019-01-04T05:46:07.296Z,5.40
2019-01-04T05:51:13.594Z,6.10
2019-01-04T05:56:17.225Z,5.40
2019-01-04T06:01:23.798Z,5.90
2019-01-04T06:06:28.394Z,6.47
2019-01-04T06:11:34.954Z,6.30
2019-01-04T06:16:38.562Z,6.37
2019-01-04T06:21:42.182Z,6.00
2019-01-04T06:26:45.843Z,6.00
2019-01-04T06:31:52.129Z,6.17
2019-01-04T06:37:01.532Z,6.20
2019-01-04T06:42:05.400Z,6.53
2019-01-04T06:47:14.242Z,7.03
2019-01-04T06:52:17.914Z,6.90
2019-01-04T06:57:24.477Z,5.87
2019-01-04T07:02:30.906Z,5.80
2019-01-04T07:07:34.745Z,7.20
2019-01-04T07:12:38.348Z,6.17
2019-01-04T07:17:49.571Z,6.80
2019-01-04T07:22:55.990Z,8.80
2019-01-04T07:28:02.304Z,9.47
2019-01-04T07:33:05.956Z,10.10
2019-01-04T07:38:09.545Z,9.47
2019-01-04T07:43:18.890Z,10.87
2019-01-04T07:48:27.946Z,10.23
2019-01-04T07:53:31.556Z,7.70
2019-01-04T07:58:35.180Z,7.87
2019-01-04T08:03:39.086Z,10.23
2019-01-04T08:08:45.396Z,9.50
2019-01-04T08:13:49.284Z,9.97
2019-01-04T08:18:53.049Z,9.13
2019-01-04T08:23:56.685Z,9.37
2019-01-04T08:29:04.926Z,9.60
2019-01-04T08:34:08.703Z,9.47
2019-01-04T08:39:13.251Z,9.40
2019-01-04T08:44:17.268Z,10.00
2019-01-04T08:49:20.973Z,9.40
2019-01-04T08:54:24.676Z,9.60
2019-01-04T08:59:30.441Z,12.40
2019-01-04T09:04:38.471Z,13.30
2019-01-04T09:09:47.860Z,11.40
2019-01-04T09:15:10.606Z,11.80
2019-01-04T09:20:12.592Z,12.10
2019-01-04T09:25:27.675Z,11.43
2019-01-04T09:30:45.974Z,11.33
2019-01-04T09:35:51.508Z,12.03
2019-01-04T09:41:23.610Z,12.37
2019-01-04T09:46:27.254Z,11.33
2019-01-04T09:51:34.128Z,12.00
2019-01-04T09:56:38.137Z,11.60
2019-01-04T10:01:43.822Z,11.13
2019-01-04T10:06:50.198Z,10.63
2019-01-04T10:11:53.885Z,10.90
2019-01-04T10:16:59.151Z,10.60
2019-01-04T10:22:08.681Z,9.97
2019-01-04T10:27:12.323Z,8.57
2019-01-04T10:32:17.187Z,9.53
2019-01-04T10:37:20.874Z,9.20
2019-01-04T10:42:24.753Z,8.80
2019-01-04T10:47:28.377Z,8.13
2019-01-04T10:52:32.099Z,8.73
2019-01-04T10:57:35.729Z,8.03
2019-01-04T11:02:39.331Z,7.33
2019-01-04T11:07:42.951Z,8.40
2019-01-04T11:12:51.184Z,7.60
2019-01-04T11:17:55.138Z,6.40
2019-01-04T11:23:04.539Z,5.70
2019-01-04T11:28:11.218Z,6.10
2019-01-04T11:33:17.961Z,6.37
2019-01-04T11:38:42.541Z,7.23
2019-01-04T11:44:10.035Z,6.60
2019-01-04T11:49:25.365Z,7.20
2019-01-04T11:54:38.684Z,6.90
2019-01-04T11:59:46.798Z,6.30
2019-01-04T12:05:00.760Z,6.40
2019-01-04T12:10:05.173Z,6.33
2019-01-04T12:15:09.003Z,7.03
2019-01-04T12:20:12.926Z,6.50
2019-01-04T12:35:33.786Z,6.30
2019-01-04T12:46:11.810Z,6.77
2019-01-04T12:51:21.365Z,5.67
2019-01-04T12:56:33.112Z,4.43
2019-01-04T13:01:36.611Z,4.13
2019-01-04T13:06:40.222Z,4.43
2019-01-04T13:11:43.844Z,4.50
2019-01-04T13:16:47.495Z,4.77
2019-01-04T13:21:51.102Z,5.00
2019-01-04T13:27:00.656Z,5.23
2019-01-04T13:32:05.877Z,5.53
2019-01-04T13:37:18.181Z,6.33
2019-01-04T13:42:21.779Z,6.97
2019-01-04T13:47:34.078Z,6.20
2019-01-04T13:52:37.720Z,6.13
2019-01-04T13:57:43.938Z,6.23
2019-01-04T14:02:47.574Z,6.60
2019-01-04T14:07:55.215Z,5.70
2019-01-04T14:13:01.847Z,5.80
2019-01-04T14:18:05.148Z,5.60
2019-01-04T14:23:08.783Z,6.63
2019-01-04T14:28:14.053Z,5.93
2019-01-04T14:33:17.673Z,6.10
2019-01-04T14:38:24.731Z,6.40
2019-01-04T14:43:28.283Z,5.70
2019-01-04T14:48:31.902Z,5.97
2019-01-04T14:53:38.447Z,5.70
2019-01-04T14:58:44.789Z,6.10
2019-01-04T15:03:48.452Z,6.57
2019-01-04T15:08:54.623Z,9.57
2019-01-04T15:14:00.698Z,8.00
2019-01-04T15:19:10.066Z,8.10
2019-01-04T15:24:14.446Z,8.10
2019-01-04T15:29:18.128Z,8.50
2019-01-04T15:34:21.927Z,7.87
2019-01-04T15:39:25.619Z,7.60
2019-01-04T15:44:32.191Z,10.57
2019-01-04T15:49:37.476Z,9.23
2019-01-04T15:54:41.087Z,9.23
2019-01-04T15:59:44.835Z,8.20
2019-01-04T16:04:48.506Z,8.30
2019-01-04T16:10:11.626Z,7.90
2019-01-04T16:15:15.404Z,7.97
2019-01-04T16:20:19.388Z,7.67
2019-01-04T16:25:42.410Z,8.50
2019-01-04T16:30:46.066Z,8.57
2019-01-04T16:41:00.454Z,8.40
2019-01-04T16:46:09.774Z,8.23
2019-01-04T16:51:16.678Z,8.93
2019-01-04T16:56:20.336Z,8.87
2019-01-04T17:01:23.977Z,9.70
2019-01-04T17:06:27.641Z,9.13
2019-01-04T17:11:31.249Z,9.23
2019-01-04T17:16:35.038Z,8.57
2019-01-04T17:21:38.702Z,9.13
2019-01-04T17:26:42.404Z,10.80
2019-01-04T17:31:46.119Z,9.33
2019-01-04T17:36:49.830Z,8.53
2019-01-04T17:41:53.534Z,8.93
2019-01-04T17:46:57.594Z,9.80
2019-01-04T17:52:01.282Z,9.57
2019-01-04T17:57:04.992Z,9.93
2019-01-04T18:02:08.953Z,10.07
2019-01-04T18:07:13.400Z,9.10
2019-01-04T18:12:17.151Z,9.70
2019-01-04T18:17:20.852Z,10.17
2019-01-04T18:22:24.474Z,13.20
2019-01-04T18:27:28.120Z,11.67
2019-01-04T18:32:31.803Z,12.87
2019-01-04T18:37:35.409Z,12.80
2019-01-04T18:42:39.220Z,12.90
2019-01-04T18:47:43.078Z,12.63
2019-01-04T18:52:51.192Z,10.67
2019-01-04T18:57:55.011Z,10.10
2019-01-04T19:02:58.711Z,10.97
2019-01-04T19:08:02.390Z,12.00
2019-01-04T19:13:06.149Z,10.00
2019-01-04T19:18:12.176Z,13.73
2019-01-04T19:23:18.613Z,9.00
2019-01-04T19:28:27.951Z,9.27
2019-01-04T19:33:37.553Z,7.00
2019-01-04T19:38:49.811Z,9.97
2019-01-04T19:43:55.663Z,8.30
2019-01-04T19:48:59.391Z,8.03
2019-01-04T19:54:02.955Z,8.77
2019-01-04T19:59:08.203Z,8.00
2019-01-04T20:04:16.427Z,6.73
2019-01-04T20:10:00.219Z,7.77
2019-01-04T20:15:29.397Z,7.57
2019-01-04T20:20:43.853Z,9.47
2019-01-04T20:25:57.655Z,8.33
2019-01-04T20:31:19.655Z,9.53
2019-01-04T20:36:27.864Z,9.40
2019-01-04T20:41:55.960Z,10.03
2019-01-04T20:47:10.176Z,10.80
2019-01-04T20:52:15.472Z,9.70
2019-01-04T20:57:37.522Z,8.23
2019-01-04T21:02:51.215Z,9.43
2019-01-04T21:08:10.992Z,9.43
2019-01-04T21:13:18.707Z,9.00
2019-01-04T21:18:29.723Z,9.23
2019-01-04T21:23:37.597Z,9.70
2019-01-04T21:28:42.838Z,8.30
2019-01-04T21:34:04.091Z,9.90
2019-01-04T21:39:11.031Z,8.93
2019-01-04T21:44:19.270Z,9.40
2019-01-04T21:49:42.832Z,9.40
2019-01-04T21:54:48.339Z,9.70
2019-01-04T21:59:59.318Z,9.27
2019-01-04T22:05:20.830Z,9.40
2019-01-04T22:10:47.219Z,9.97
2019-01-04T22:16:11.391Z,10.70
2019-01-04T22:21:31.215Z,10.97
2019-01-04T22:26:48.486Z,11.40
2019-01-04T22:31:53.731Z,10.50
2019-01-04T22:37:10.603Z,11.17
2019-01-04T22:42:21.528Z,10.50
2019-01-04T22:47:26.760Z,10.70
2019-01-04T22:52:37.914Z,10.40
2019-01-04T22:57:49.073Z,10.70
2019-01-04T23:03:10.199Z,11.30
2019-01-04T23:08:21.729Z,10.40
2019-01-04T23:13:27.005Z,10.53
2019-01-04T23:18:43.754Z,13.90
2019-01-04T23:24:00.855Z,13.60
2019-01-04T23:29:21.736Z,12.87
2019-01-04T23:34:35.795Z,13.57
2019-01-04T23:39:46.482Z,14.00
2019-01-04T23:45:08.052Z,14.40
2019-01-04T23:50:27.687Z,14.80
2019-01-04T23:55:44.773Z,16.13
